Chateauguay, Canada
Current Conditions -  °F | °C
As of 2:00 PM on Saturday 20 Dec 2014 (Local Time) from CYUL Reporting Station
Few Clouds Few Clouds  
Wind Chill:   Ceiling: Unl
Heat Index: 18°   Visibility: 12mi
Dew Point: 10°   Wind: 6mph
Humidity: 73%   Direction: 20°NNE
Pressure: 30.34"   Gusts: NA
Location:  45.38°N, 73.75°W
Report Text: CYUL 201900Z 02005KT 12SM FEW015 FEW240 M08/M12 A3034 RMK SF1CI1 SF TR SLP277
Loading
Personal Weather Stations






























Interactive Weather Map New forecast layout! Learn more

10-Day Weather Forecast

Advertisements
Track Severe Weather on mobile